createdAt,value
2018-02-19T00:00:03.697Z,2.20
2018-02-19T00:02:30.599Z,2.30
2018-02-19T00:04:57.555Z,2.10
2018-02-19T00:07:25.136Z,1.90
2018-02-19T00:09:52.709Z,1.90
2018-02-19T00:12:20.256Z,2.00
2018-02-19T00:14:47.139Z,2.00
2018-02-19T00:17:14.013Z,2.10
2018-02-19T00:19:41.605Z,2.00
2018-02-19T00:22:08.458Z,2.00
2018-02-19T00:24:35.330Z,2.20
2018-02-19T00:27:02.185Z,2.10
2018-02-19T00:29:29.036Z,1.90
2018-02-19T00:31:55.875Z,1.90
2018-02-19T00:34:23.826Z,2.00
2018-02-19T00:36:50.694Z,1.90
2018-02-19T00:39:17.506Z,2.00
2018-02-19T00:41:44.350Z,2.20
2018-02-19T00:44:11.242Z,2.10
2018-02-19T00:46:38.798Z,1.90
2018-02-19T00:49:06.350Z,2.10
2018-02-19T00:51:33.930Z,2.30
2018-02-19T00:54:01.478Z,2.30
2018-02-19T00:56:29.043Z,2.10
2018-02-19T00:58:55.895Z,2.10
2018-02-19T01:01:22.719Z,2.00
2018-02-19T01:03:49.553Z,2.10
2018-02-19T01:06:17.206Z,2.40
2018-02-19T01:08:44.791Z,2.40
2018-02-19T01:11:12.377Z,2.20
2018-02-19T01:13:39.209Z,2.20
2018-02-19T01:16:06.138Z,2.30
2018-02-19T01:18:33.705Z,2.20
2018-02-19T01:21:00.535Z,2.20
2018-02-19T01:23:28.125Z,2.30
2018-02-19T01:25:55.003Z,2.30
2018-02-19T01:28:21.875Z,2.20
2018-02-19T01:30:49.442Z,2.10
2018-02-19T01:33:16.998Z,2.00
2018-02-19T01:35:44.698Z,1.80
2018-02-19T01:38:11.538Z,1.80
2018-02-19T01:40:38.370Z,1.80
2018-02-19T01:43:05.216Z,1.90
2018-02-19T01:45:32.097Z,2.10
2018-02-19T01:47:58.956Z,2.20
2018-02-19T01:50:25.782Z,2.30
2018-02-19T01:52:52.608Z,2.20
2018-02-19T01:55:19.499Z,2.20
2018-02-19T01:57:47.078Z,2.20
2018-02-19T02:00:14.662Z,2.30
2018-02-19T02:02:41.511Z,2.30
2018-02-19T02:05:08.398Z,2.30
2018-02-19T02:07:35.225Z,2.30
2018-02-19T02:10:02.107Z,2.30
2018-02-19T02:12:28.987Z,2.20
2018-02-19T02:14:55.946Z,2.20
2018-02-19T02:17:22.794Z,2.20
2018-02-19T02:19:49.634Z,2.30
2018-02-19T02:22:16.454Z,2.30
2018-02-19T02:24:43.333Z,2.30
2018-02-19T02:27:10.946Z,2.30
2018-02-19T02:29:38.510Z,2.30
2018-02-19T02:32:05.319Z,2.30
2018-02-19T02:34:33.994Z,2.00
2018-02-19T02:37:00.817Z,1.90
2018-02-19T02:39:27.646Z,1.90
2018-02-19T02:41:54.487Z,1.80
2018-02-19T02:44:21.364Z,1.70
2018-02-19T02:46:48.966Z,1.40
2018-02-19T02:49:15.820Z,1.40
2018-02-19T02:51:42.648Z,1.30
2018-02-19T02:54:09.511Z,1.40
2018-02-19T02:56:36.347Z,1.60
2018-02-19T02:59:03.189Z,1.80
2018-02-19T03:01:30.081Z,1.80
2018-02-19T03:03:57.646Z,1.70
2018-02-19T03:06:24.590Z,1.70
2018-02-19T03:08:52.159Z,1.60
2018-02-19T03:11:19.730Z,1.30
2018-02-19T03:13:46.576Z,1.30
2018-02-19T03:16:13.485Z,1.30
2018-02-19T03:18:40.302Z,1.50
2018-02-19T03:21:07.162Z,1.60
2018-02-19T03:23:33.983Z,1.60
2018-02-19T03:26:00.869Z,1.70
2018-02-19T03:28:27.673Z,1.70
2018-02-19T03:30:54.500Z,1.70
2018-02-19T03:33:21.351Z,1.50
2018-02-19T03:35:48.313Z,1.50
2018-02-19T03:38:15.160Z,1.50
2018-02-19T03:40:41.990Z,1.40
2018-02-19T03:43:08.850Z,1.30
2018-02-19T03:45:35.675Z,1.30
2018-02-19T03:48:02.505Z,1.50
2018-02-19T03:50:29.334Z,1.40
2018-02-19T03:52:56.158Z,1.20
2018-02-19T03:55:23.042Z,1.20
2018-02-19T03:57:49.915Z,1.20
2018-02-19T04:00:17.502Z,1.40
2018-02-19T04:02:44.324Z,1.40
2018-02-19T04:05:12.003Z,1.40
2018-02-19T04:07:39.567Z,1.40
2018-02-19T04:10:06.408Z,1.40
2018-02-19T04:12:34.002Z,1.60
2018-02-19T04:15:00.860Z,1.60
2018-02-19T04:17:27.662Z,1.50
2018-02-19T04:19:54.517Z,1.50
2018-02-19T04:22:21.340Z,1.70
2018-02-19T04:24:48.235Z,1.60
2018-02-19T04:27:15.071Z,1.70
2018-02-19T04:29:41.887Z,1.50
2018-02-19T04:32:08.709Z,1.50
2018-02-19T04:34:36.351Z,1.70
2018-02-19T04:37:03.231Z,1.70
2018-02-19T04:39:30.073Z,1.80
2018-02-19T04:41:56.899Z,1.80
2018-02-19T04:44:30.602Z,1.80
2018-02-19T04:46:59.406Z,1.80
2018-02-19T04:49:26.235Z,1.70
2018-02-19T04:51:53.090Z,1.70
2018-02-19T04:54:19.981Z,1.80
2018-02-19T04:56:46.837Z,1.90
2018-02-19T04:59:13.641Z,1.90
2018-02-19T05:01:40.462Z,2.00
2018-02-19T05:04:07.298Z,2.00
2018-02-19T05:06:34.131Z,2.10
2018-02-19T05:09:00.975Z,2.00
2018-02-19T05:11:27.830Z,2.10
2018-02-19T05:13:54.669Z,1.80
2018-02-19T05:16:21.566Z,1.60
2018-02-19T05:18:48.419Z,1.60
2018-02-19T05:21:15.234Z,1.70
2018-02-19T05:23:42.082Z,1.80
2018-02-19T05:26:08.917Z,1.90
2018-02-19T05:28:35.766Z,1.80
2018-02-19T05:31:02.587Z,1.80
2018-02-19T05:33:29.410Z,1.90
2018-02-19T05:35:56.313Z,2.00
2018-02-19T05:38:23.127Z,2.00
2018-02-19T05:40:49.970Z,2.00
2018-02-19T05:43:16.806Z,2.00
2018-02-19T05:45:43.658Z,2.00
2018-02-19T05:48:10.527Z,2.00
2018-02-19T05:50:37.679Z,2.00
2018-02-19T05:53:04.647Z,2.00
2018-02-19T05:55:35.470Z,1.90
2018-02-19T05:58:02.590Z,1.90
2018-02-19T06:00:29.794Z,1.80
2018-02-19T06:02:56.735Z,1.80
2018-02-19T06:05:23.631Z,1.80
2018-02-19T06:07:51.211Z,1.80
2018-02-19T06:10:18.036Z,1.80
2018-02-19T06:12:44.958Z,1.90
2018-02-19T06:15:11.884Z,1.90
2018-02-19T06:17:38.703Z,2.00
2018-02-19T06:20:05.550Z,2.10
2018-02-19T06:22:32.434Z,2.10
2018-02-19T06:25:00.014Z,2.10
2018-02-19T06:27:26.871Z,2.10
2018-02-19T06:29:53.710Z,2.10
2018-02-19T06:32:20.538Z,2.20
2018-02-19T06:34:47.390Z,2.20
2018-02-19T06:37:14.206Z,2.20
2018-02-19T06:39:41.094Z,2.10
2018-02-19T06:42:07.902Z,2.10
2018-02-19T06:44:34.792Z,2.10
2018-02-19T06:47:01.659Z,2.10
2018-02-19T06:49:28.707Z,2.20
2018-02-19T06:51:55.594Z,2.30
2018-02-19T06:54:22.441Z,2.40
2018-02-19T06:56:50.062Z,2.30
2018-02-19T06:59:16.874Z,2.30
2018-02-19T07:01:43.756Z,2.30
2018-02-19T07:04:11.346Z,2.30
2018-02-19T07:06:38.894Z,2.30
2018-02-19T07:09:05.997Z,2.30
2018-02-19T07:11:33.594Z,2.20
2018-02-19T07:14:01.164Z,2.30
2018-02-19T07:16:28.767Z,2.30
2018-02-19T07:18:55.602Z,2.30
2018-02-19T07:21:22.422Z,2.00
2018-02-19T07:23:49.379Z,2.00
2018-02-19T07:26:16.214Z,2.00
2018-02-19T07:28:43.050Z,2.00
2018-02-19T07:31:09.951Z,2.10
2018-02-19T07:33:36.775Z,2.20
2018-02-19T07:36:04.359Z,2.00
2018-02-19T07:38:31.202Z,2.00
2018-02-19T07:40:58.768Z,2.10
2018-02-19T07:43:26.342Z,2.00
2018-02-19T07:45:53.206Z,2.00
2018-02-19T07:48:20.030Z,1.90
2018-02-19T07:50:46.827Z,2.10
2018-02-19T07:56:10.938Z,2.20
2018-02-19T07:58:37.773Z,2.40
2018-02-19T08:01:04.602Z,2.30
2018-02-19T08:03:31.465Z,2.40
2018-02-19T08:05:59.070Z,2.50
2018-02-19T08:08:25.899Z,2.50
2018-02-19T08:10:53.454Z,2.50
2018-02-19T08:13:21.057Z,2.30
2018-02-19T08:15:47.905Z,2.30
2018-02-19T08:18:14.760Z,2.40
2018-02-19T08:20:41.609Z,2.40
2018-02-19T08:23:08.409Z,2.60
2018-02-19T08:25:35.236Z,2.50
2018-02-19T08:28:02.821Z,2.50
2018-02-19T08:30:29.650Z,2.50
2018-02-19T08:32:56.479Z,2.50
2018-02-19T08:35:24.081Z,2.50
2018-02-19T08:37:50.906Z,2.50
2018-02-19T08:40:17.790Z,2.40
2018-02-19T08:42:44.668Z,2.40
2018-02-19T08:45:11.539Z,2.60
2018-02-19T08:47:38.369Z,2.60
2018-02-19T08:50:05.227Z,2.50
2018-02-19T08:52:32.074Z,2.50
2018-02-19T08:54:58.933Z,2.60
2018-02-19T08:57:25.773Z,2.60
2018-02-19T08:59:52.626Z,2.60
2018-02-19T09:02:19.437Z,2.80
2018-02-19T09:04:46.328Z,2.80
2018-02-19T09:07:13.919Z,2.80
2018-02-19T09:09:40.746Z,2.80
2018-02-19T09:12:08.319Z,2.90
2018-02-19T09:14:35.122Z,2.90
2018-02-19T09:17:01.970Z,2.80
2018-02-19T09:19:29.501Z,2.70
2018-02-19T09:21:56.391Z,2.70
2018-02-19T09:24:23.983Z,2.80
2018-02-19T09:26:50.814Z,2.80
2018-02-19T09:29:17.678Z,2.70
2018-02-19T09:31:44.514Z,2.80
2018-02-19T09:34:11.691Z,2.90
2018-02-19T09:36:38.697Z,2.90
2018-02-19T09:39:05.601Z,2.80
2018-02-19T09:41:33.218Z,3.10
2018-02-19T09:44:00.060Z,3.10
2018-02-19T09:46:26.927Z,3.30
2018-02-19T09:48:53.949Z,3.30
2018-02-19T09:51:20.907Z,3.30
2018-02-19T09:53:48.563Z,3.40
2018-02-19T09:56:15.407Z,3.40
2018-02-19T09:58:42.270Z,3.60
2018-02-19T10:01:09.323Z,3.70
2018-02-19T10:03:36.274Z,3.80
2018-02-19T10:06:03.431Z,3.80
2018-02-19T10:08:30.335Z,3.80
2018-02-19T10:10:57.177Z,3.70
2018-02-19T10:13:24.279Z,3.80
2018-02-19T10:15:51.186Z,4.00
2018-02-19T10:18:18.225Z,3.90
2018-02-19T10:20:45.242Z,3.90
2018-02-19T10:23:13.047Z,3.40
2018-02-19T10:25:41.615Z,3.50
2018-02-19T10:28:09.258Z,3.80
2018-02-19T10:30:36.835Z,4.10
2018-02-19T10:33:03.699Z,4.10
2018-02-19T10:35:30.551Z,4.10
2018-02-19T10:40:30.987Z,3.80
2018-02-19T10:42:57.830Z,3.80
2018-02-19T10:45:24.654Z,3.80
2018-02-19T10:47:51.455Z,3.90
2018-02-19T10:50:19.055Z,4.20
2018-02-19T10:52:45.882Z,4.20
2018-02-19T10:55:12.796Z,4.70
2018-02-19T10:57:39.621Z,4.60
2018-02-19T11:00:06.466Z,5.00
2018-02-19T11:02:33.326Z,5.30
2018-02-19T11:05:00.913Z,5.00
2018-02-19T11:07:27.734Z,5.00
2018-02-19T11:09:55.323Z,5.00
2018-02-19T11:12:22.174Z,4.90
2018-02-19T11:14:49.034Z,4.70
2018-02-19T11:17:15.890Z,4.40
2018-02-19T11:19:42.739Z,4.30
2018-02-19T11:22:09.582Z,4.10
2018-02-19T11:24:37.198Z,4.30
2018-02-19T11:27:04.042Z,4.30
2018-02-19T11:29:30.894Z,4.50
2018-02-19T11:31:57.758Z,5.20
2018-02-19T11:34:24.582Z,5.70
2018-02-19T11:36:51.449Z,5.70
2018-02-19T11:39:18.318Z,6.20
2018-02-19T11:41:45.894Z,6.70
2018-02-19T11:44:12.736Z,6.60
2018-02-19T11:46:39.554Z,6.50
2018-02-19T11:49:07.158Z,6.60
2018-02-19T11:51:33.970Z,6.50
2018-02-19T11:54:01.534Z,7.20
2018-02-19T11:56:28.539Z,7.20
2018-02-19T11:58:55.441Z,7.30
2018-02-19T12:01:23.015Z,7.40
2018-02-19T12:03:49.855Z,7.40
2018-02-19T12:06:16.695Z,8.10
2018-02-19T12:08:43.685Z,8.60
2018-02-19T12:11:11.276Z,8.80
2018-02-19T12:13:38.886Z,8.90
2018-02-19T12:16:06.454Z,9.30
2018-02-19T12:18:33.310Z,9.30
2018-02-19T12:21:00.162Z,8.90
2018-02-19T12:23:27.733Z,8.10
2018-02-19T12:25:54.627Z,8.00
2018-02-19T12:28:21.459Z,7.30
2018-02-19T12:30:48.266Z,7.30
2018-02-19T12:33:15.119Z,7.20
2018-02-19T12:35:42.686Z,6.70
2018-02-19T12:38:09.546Z,6.70
2018-02-19T12:40:36.443Z,6.50
2018-02-19T12:43:04.036Z,6.20
2018-02-19T12:48:04.154Z,5.70
2018-02-19T12:50:31.060Z,5.60
2018-02-19T12:52:57.895Z,5.50
2018-02-19T12:55:24.738Z,5.50
2018-02-19T12:57:51.598Z,5.60
2018-02-19T13:00:18.451Z,5.80
2018-02-19T13:02:46.058Z,5.90
2018-02-19T13:05:12.911Z,5.90
2018-02-19T13:07:39.781Z,5.90
2018-02-19T13:10:06.640Z,6.00
2018-02-19T13:12:34.201Z,6.10
2018-02-19T13:15:01.112Z,6.10
2018-02-19T13:17:27.919Z,6.00
2018-02-19T13:19:54.779Z,5.90
2018-02-19T13:22:21.634Z,6.00
2018-02-19T13:24:48.455Z,6.00
2018-02-19T13:27:15.275Z,6.00
2018-02-19T13:29:42.090Z,6.30
2018-02-19T13:32:08.968Z,6.30
2018-02-19T13:34:35.814Z,6.30
2018-02-19T13:37:02.662Z,6.10
2018-02-19T13:39:30.253Z,5.90
2018-02-19T13:41:57.086Z,5.90
2018-02-19T13:44:23.922Z,6.30
2018-02-19T13:46:50.828Z,6.60
2018-02-19T13:49:18.395Z,7.50
2018-02-19T13:51:45.959Z,8.00
2018-02-19T13:54:12.830Z,8.00
2018-02-19T13:56:39.666Z,8.40
2018-02-19T13:59:06.495Z,8.60
2018-02-19T14:01:33.473Z,8.50
2018-02-19T14:04:00.305Z,7.40
2018-02-19T14:06:27.190Z,6.80
2018-02-19T14:08:54.945Z,6.20
2018-02-19T14:11:21.752Z,6.20
2018-02-19T14:13:48.602Z,6.10
2018-02-19T14:16:15.435Z,6.10
2018-02-19T14:18:42.258Z,5.90
2018-02-19T14:21:09.385Z,5.70
2018-02-19T14:23:37.138Z,5.60
2018-02-19T14:26:04.322Z,5.50
2018-02-19T14:28:32.295Z,5.60
2018-02-19T14:30:59.138Z,5.70
2018-02-19T14:33:26.171Z,5.70
2018-02-19T14:35:53.190Z,5.40
2018-02-19T14:38:20.036Z,5.50
2018-02-19T14:40:47.059Z,5.10
2018-02-19T14:43:14.767Z,5.00
2018-02-19T14:45:41.937Z,5.00
2018-02-19T14:48:09.007Z,5.10
2018-02-19T14:50:36.810Z,5.10
2018-02-19T14:53:03.706Z,5.10
2018-02-19T14:55:30.801Z,5.30
2018-02-19T14:57:58.892Z,5.30
2018-02-19T15:00:26.751Z,5.30
2018-02-19T15:02:54.826Z,5.40
2018-02-19T15:05:21.931Z,5.40
2018-02-19T15:07:48.989Z,5.40
2018-02-19T15:10:15.914Z,5.20
2018-02-19T15:12:43.002Z,5.00
2018-02-19T15:15:09.975Z,4.70
2018-02-19T15:17:36.843Z,4.40
2018-02-19T15:20:03.715Z,4.40
2018-02-19T15:22:30.750Z,4.30
2018-02-19T15:24:57.922Z,4.30
2018-02-19T15:27:24.948Z,4.10
2018-02-19T15:29:52.546Z,4.30
2018-02-19T15:32:19.423Z,4.30
2018-02-19T15:34:46.382Z,4.30
2018-02-19T15:37:13.910Z,4.40
2018-02-19T15:39:42.290Z,4.60
2018-02-19T15:42:09.598Z,4.50
2018-02-19T15:44:36.523Z,4.60
2018-02-19T15:47:03.614Z,4.60
2018-02-19T15:49:30.704Z,4.40
2018-02-19T15:51:57.531Z,4.30
2018-02-19T15:54:24.402Z,4.30
2018-02-19T15:56:51.323Z,4.20
2018-02-19T15:59:18.354Z,4.20
2018-02-19T16:01:46.930Z,3.60
2018-02-19T16:04:14.862Z,3.50
2018-02-19T16:06:42.718Z,3.70
2018-02-19T16:09:09.706Z,3.70
2018-02-19T16:11:37.516Z,3.70
2018-02-19T16:14:04.522Z,3.40
2018-02-19T16:16:35.322Z,3.20
2018-02-19T16:19:02.202Z,3.50
2018-02-19T16:21:29.798Z,3.60
2018-02-19T16:23:57.504Z,3.40
2018-02-19T16:26:26.224Z,3.30
2018-02-19T16:28:54.066Z,3.10
2018-02-19T16:31:21.727Z,3.20
2018-02-19T16:33:49.423Z,3.30
2018-02-19T16:36:16.407Z,3.20
2018-02-19T16:38:44.739Z,3.20
2018-02-19T16:41:11.882Z,3.10
2018-02-19T16:43:40.018Z,3.20
2018-02-19T16:46:07.099Z,3.30
2018-02-19T16:48:34.972Z,3.30
2018-02-19T16:51:02.036Z,3.10
2018-02-19T16:53:29.049Z,3.20
2018-02-19T16:55:56.083Z,3.20
2018-02-19T16:58:23.178Z,3.10
2018-02-19T17:00:50.018Z,2.90
2018-02-19T17:03:17.799Z,3.10
2018-02-19T17:05:46.714Z,3.20
2018-02-19T17:08:14.622Z,3.20
2018-02-19T17:10:42.584Z,3.30
2018-02-19T17:13:09.709Z,3.20
2018-02-19T17:15:38.074Z,3.30
2018-02-19T17:18:05.223Z,3.30
2018-02-19T17:20:32.379Z,3.30
2018-02-19T17:22:59.470Z,3.30
2018-02-19T17:25:26.698Z,3.30
2018-02-19T17:27:54.175Z,3.30
2018-02-19T17:30:21.129Z,3.30
2018-02-19T17:32:48.241Z,3.20
2018-02-19T17:35:15.250Z,3.20
2018-02-19T17:37:42.263Z,3.20
2018-02-19T17:40:09.351Z,3.10
2018-02-19T17:42:36.954Z,3.00
2018-02-19T17:45:04.010Z,3.00
2018-02-19T17:47:31.115Z,3.10
2018-02-19T17:49:58.311Z,3.00
2018-02-19T17:52:25.809Z,2.90
2018-02-19T17:54:52.750Z,2.90
2018-02-19T17:57:19.728Z,2.90
2018-02-19T17:59:47.499Z,2.70
2018-02-19T18:02:14.492Z,2.80
2018-02-19T18:04:42.187Z,2.90
2018-02-19T18:07:10.159Z,2.70
2018-02-19T18:09:37.903Z,2.70
2018-02-19T18:12:05.186Z,2.70
2018-02-19T18:14:33.410Z,2.60
2018-02-19T18:17:00.442Z,2.70
2018-02-19T18:19:29.031Z,2.70
2018-02-19T18:21:57.038Z,2.80
2018-02-19T18:24:24.858Z,2.80
2018-02-19T18:26:53.381Z,2.70
2018-02-19T18:29:20.306Z,2.70
2018-02-19T18:31:47.969Z,2.70
2018-02-19T18:34:14.965Z,2.70
2018-02-19T18:36:43.354Z,2.70
2018-02-19T18:39:11.096Z,2.70
2018-02-19T18:41:38.307Z,2.70
2018-02-19T18:44:05.327Z,2.70
2018-02-19T18:46:33.778Z,2.70
2018-02-19T18:49:01.448Z,2.70
2018-02-19T18:51:30.284Z,2.70
2018-02-19T18:53:57.924Z,2.70
2018-02-19T18:56:25.789Z,2.70
2018-02-19T18:58:52.807Z,2.60
2018-02-19T19:01:19.887Z,2.60
2018-02-19T19:03:46.827Z,2.70
2018-02-19T19:06:14.673Z,2.70
2018-02-19T19:11:41.443Z,2.60
2018-02-19T19:14:10.153Z,2.60
2018-02-19T19:16:37.923Z,2.70
2018-02-19T19:19:04.826Z,2.80
2018-02-19T19:21:32.523Z,2.80
2018-02-19T19:24:00.083Z,2.60
2018-02-19T19:26:26.996Z,2.60
2018-02-19T19:28:54.194Z,2.60
2018-02-19T19:31:22.683Z,2.60
2018-02-19T19:33:50.454Z,2.70
2018-02-19T19:36:17.663Z,2.70
2018-02-19T19:38:45.347Z,2.70
2018-02-19T19:41:12.283Z,2.70
2018-02-19T19:43:39.371Z,2.80
2018-02-19T19:46:06.363Z,2.80
2018-02-19T19:48:33.209Z,2.80
2018-02-19T19:51:00.055Z,2.80
2018-02-19T19:53:26.890Z,2.80
2018-02-19T19:55:53.835Z,2.70
2018-02-19T19:58:20.675Z,2.70
2018-02-19T20:00:47.530Z,2.90
2018-02-19T20:03:14.391Z,2.80
2018-02-19T20:05:41.264Z,2.70
2018-02-19T20:08:08.087Z,2.70
2018-02-19T20:10:34.964Z,2.70
2018-02-19T20:13:01.816Z,2.80
2018-02-19T20:15:28.758Z,2.80
2018-02-19T20:17:55.590Z,2.70
2018-02-19T20:20:22.411Z,2.70
2018-02-19T20:22:49.265Z,2.70
2018-02-19T20:25:16.230Z,2.70
2018-02-19T20:27:43.810Z,2.80
2018-02-19T20:30:10.677Z,2.80
2018-02-19T20:32:37.740Z,2.80
2018-02-19T20:35:04.638Z,2.80
2018-02-19T20:37:31.679Z,2.90
2018-02-19T20:39:58.698Z,3.00
2018-02-19T20:42:26.370Z,2.70
2018-02-19T20:44:54.251Z,2.80
2018-02-19T20:47:21.155Z,2.80
2018-02-19T20:49:48.143Z,2.80
2018-02-19T20:52:15.150Z,2.80
2018-02-19T20:54:42.918Z,2.80
2018-02-19T20:57:09.875Z,2.80
2018-02-19T20:59:37.774Z,3.00
2018-02-19T21:02:05.911Z,2.90
2018-02-19T21:04:33.034Z,2.90
2018-02-19T21:07:00.862Z,2.90
2018-02-19T21:09:27.945Z,2.90
2018-02-19T21:11:55.710Z,2.90
2018-02-19T21:14:22.811Z,3.00
2018-02-19T21:16:51.123Z,2.70
2018-02-19T21:19:18.845Z,2.70
2018-02-19T21:21:46.439Z,2.70
2018-02-19T21:24:14.977Z,2.70
2018-02-19T21:26:41.882Z,2.60
2018-02-19T21:29:09.145Z,2.60
2018-02-19T21:31:37.918Z,2.60
2018-02-19T21:34:04.982Z,2.60
2018-02-19T21:36:31.838Z,2.60
2018-02-19T21:38:58.922Z,2.60
2018-02-19T21:41:25.830Z,2.60
2018-02-19T21:43:52.875Z,2.60
2018-02-19T21:46:19.834Z,2.60
2018-02-19T21:48:46.861Z,2.60
2018-02-19T21:51:13.946Z,2.60
2018-02-19T21:53:40.830Z,2.50
2018-02-19T21:56:07.773Z,2.50
2018-02-19T21:58:34.579Z,2.40
2018-02-19T22:01:02.164Z,2.10
2018-02-19T22:03:29.439Z,2.10
2018-02-19T22:05:57.227Z,2.20
2018-02-19T22:08:24.338Z,2.20
2018-02-19T22:10:52.158Z,2.10
2018-02-19T22:13:19.782Z,2.00
2018-02-19T22:15:46.663Z,2.00
2018-02-19T22:18:13.486Z,2.00
2018-02-19T22:20:40.334Z,2.00
2018-02-19T22:23:07.190Z,2.00
2018-02-19T22:25:35.055Z,2.00
2018-02-19T22:28:01.879Z,2.10
2018-02-19T22:30:28.702Z,2.10
2018-02-19T22:32:55.539Z,2.10
2018-02-19T22:35:22.697Z,2.20
2018-02-19T22:37:50.749Z,2.20
2018-02-19T22:40:18.586Z,2.20
2018-02-19T22:42:46.419Z,2.00
2018-02-19T22:45:13.305Z,2.00
2018-02-19T22:47:40.130Z,2.00
2018-02-19T22:50:06.953Z,2.00
2018-02-19T22:52:33.775Z,2.00
2018-02-19T22:55:00.666Z,2.00
2018-02-19T22:57:28.266Z,2.00
2018-02-19T22:59:55.066Z,2.00
2018-02-19T23:02:21.914Z,2.00
2018-02-19T23:04:49.547Z,2.10
2018-02-19T23:07:16.399Z,2.10
2018-02-19T23:09:43.242Z,2.10
2018-02-19T23:12:10.095Z,2.10
2018-02-19T23:14:37.021Z,2.00
2018-02-19T23:17:03.841Z,1.90
2018-02-19T23:19:30.650Z,1.90
2018-02-19T23:21:58.226Z,2.00
2018-02-19T23:24:25.097Z,2.00
2018-02-19T23:26:51.967Z,2.00
2018-02-19T23:29:18.773Z,2.00
2018-02-19T23:31:45.582Z,2.10
2018-02-19T23:34:13.166Z,2.00
2018-02-19T23:36:39.985Z,2.00
2018-02-19T23:39:07.527Z,2.00
2018-02-19T23:41:35.123Z,2.00
2018-02-19T23:44:01.949Z,1.90
2018-02-19T23:46:28.853Z,1.90
2018-02-19T23:48:55.705Z,1.90
2018-02-19T23:51:22.528Z,1.90
2018-02-19T23:53:49.334Z,1.90
2018-02-19T23:56:16.230Z,1.90
2018-02-19T23:58:43.074Z,2.00
